Strona główna
METAR-TAF:

METAR-TAF

Lotnisko :

Sisseton Municipal Airport

Sisseton, Dakota Południowa, Stany Zjednoczone

Szerokość geograficzna: 45-40-08N, Długość geograficzna: 096-59-29W, wysokość: 354 m

Aktualna obserwacja pogody

Raport powstał 40 minut temu, godzina 05:56 UTC
Wiatr 7 kt od południowy wschód
Temperatura -12°C
Wilgotność 78%
Ciśnienie 1015 hPa

METAR: K8D3 130556Z AUTO 14007KT M12/M15 A2996 RMK AO1 SLP187 T11171150 11117 21122 411171156 58022

czas: 00:36 (06:36 UTC)


TAF: brakujący

Obserwacja i prognoza pogody dla ponad 4000 lotnisk (raport METAR i TAF).

Dostępne stacje oznaczono żółtymi i czerwonymi punktami na mapie.

Najedź kursorem aby zobaczyć nazwę stacji.

Kliknij aby zobaczyć obserwacje i prognozy pogody.

Aby zmienić mapę: kliknij na zielony przycisk z czarnym krzyżykiem, aby powiększyć; na zielony przycisk z myślnikiem, aby pomniejszyć; na zielone strzałki, aby przejść do map sąsiednich.


METAR-TAF: